createdAt,value
2018-11-10T00:02:06.434Z,8.16
2018-11-10T00:04:34.598Z,8.12
2018-11-10T00:07:02.833Z,8.16
2018-11-10T00:09:31.049Z,8.07
2018-11-10T00:11:59.176Z,8.24
2018-11-10T00:14:27.337Z,8.18
2018-11-10T00:16:55.443Z,8.31
2018-11-10T00:19:23.587Z,8.17
2018-11-10T00:21:51.764Z,8.24
2018-11-10T00:24:20.010Z,8.06
2018-11-10T00:26:48.160Z,8.16
2018-11-10T00:29:16.299Z,8.21
2018-11-10T00:31:44.434Z,8.21
2018-11-10T00:34:12.621Z,8.11
2018-11-10T00:36:40.812Z,8.04
2018-11-10T00:39:09.717Z,8.10
2018-11-10T00:41:37.966Z,8.09
2018-11-10T00:44:06.146Z,8.01
2018-11-10T00:46:34.317Z,8.00
2018-11-10T00:49:02.641Z,8.03
2018-11-10T00:51:30.927Z,7.94
2018-11-10T00:53:59.063Z,7.95
2018-11-10T00:56:27.401Z,7.91
2018-11-10T00:58:55.512Z,7.82
2018-11-10T01:01:30.534Z,7.78
2018-11-10T01:03:58.687Z,7.79
2018-11-10T01:06:26.883Z,7.76
2018-11-10T01:08:55.080Z,7.67
2018-11-10T01:11:23.238Z,7.71
2018-11-10T01:13:51.417Z,7.56
2018-11-10T01:16:19.541Z,7.63
2018-11-10T01:18:47.643Z,7.65
2018-11-10T01:21:15.765Z,7.63
2018-11-10T01:23:43.897Z,7.67
2018-11-10T01:26:12.063Z,7.69
2018-11-10T01:28:40.357Z,7.71
2018-11-10T01:31:08.581Z,7.66
2018-11-10T01:33:36.899Z,7.73
2018-11-10T01:36:05.191Z,7.57
2018-11-10T01:38:33.400Z,7.56
2018-11-10T01:41:01.497Z,7.59
2018-11-10T01:43:29.642Z,7.55
2018-11-10T01:45:57.812Z,7.43
2018-11-10T01:48:25.985Z,7.49
2018-11-10T01:50:54.099Z,7.49
2018-11-10T01:53:22.355Z,7.56
2018-11-10T01:55:50.472Z,7.38
2018-11-10T01:58:18.649Z,7.37
2018-11-10T02:00:46.996Z,7.23
2018-11-10T02:03:15.127Z,7.31
2018-11-10T02:05:49.861Z,7.32
2018-11-10T02:08:17.987Z,7.30
2018-11-10T02:10:46.092Z,7.26
2018-11-10T02:13:14.217Z,7.26
2018-11-10T02:15:42.377Z,7.23
2018-11-10T02:18:10.539Z,7.22
2018-11-10T02:20:38.699Z,7.18
2018-11-10T02:23:06.811Z,7.23
2018-11-10T02:25:34.971Z,7.27
2018-11-10T02:28:03.348Z,7.24
2018-11-10T02:30:31.547Z,7.15
2018-11-10T02:32:59.863Z,7.14
2018-11-10T02:35:28.032Z,7.14
2018-11-10T02:37:56.204Z,7.07
2018-11-10T02:40:24.378Z,7.19
2018-11-10T02:42:52.653Z,7.20
2018-11-10T02:45:20.773Z,7.18
2018-11-10T02:47:48.895Z,7.29
2018-11-10T02:50:17.013Z,7.28
2018-11-10T02:52:45.156Z,7.30
2018-11-10T02:55:13.296Z,7.38
2018-11-10T02:57:41.935Z,7.57
2018-11-10T03:00:11.269Z,7.29
2018-11-10T03:02:39.529Z,7.31
2018-11-10T03:05:08.030Z,7.19
2018-11-10T03:07:36.404Z,7.23
2018-11-10T03:10:05.208Z,7.12
2018-11-10T03:12:33.345Z,7.25
2018-11-10T03:15:01.488Z,7.23
2018-11-10T03:17:29.632Z,7.19
2018-11-10T03:19:57.771Z,7.16
2018-11-10T03:22:25.953Z,6.94
2018-11-10T03:24:54.092Z,7.09
2018-11-10T03:27:22.277Z,6.96
2018-11-10T03:29:50.403Z,7.16
2018-11-10T03:32:18.577Z,7.24
2018-11-10T03:34:46.715Z,7.35
2018-11-10T03:37:14.830Z,7.29
2018-11-10T03:39:42.924Z,7.35
2018-11-10T03:42:11.059Z,7.21
2018-11-10T03:44:39.185Z,7.17
2018-11-10T03:47:07.301Z,7.28
2018-11-10T03:49:35.375Z,7.24
2018-11-10T03:52:03.483Z,7.22
2018-11-10T03:54:31.573Z,7.28
2018-11-10T03:56:59.694Z,7.26
2018-11-10T03:59:27.965Z,7.35
2018-11-10T04:01:56.229Z,7.40
2018-11-10T04:04:24.372Z,7.24
2018-11-10T04:06:52.489Z,7.25
2018-11-10T04:09:20.715Z,7.45
2018-11-10T04:11:48.831Z,7.45
2018-11-10T04:14:16.964Z,7.47
2018-11-10T04:16:45.203Z,7.35
2018-11-10T04:19:13.602Z,7.59
2018-11-10T04:21:41.707Z,7.61
2018-11-10T04:24:09.935Z,7.62
2018-11-10T04:26:38.171Z,7.59
2018-11-10T04:29:06.617Z,7.61
2018-11-10T04:31:34.881Z,7.70
2018-11-10T04:34:03.041Z,7.77
2018-11-10T04:36:31.207Z,7.51
2018-11-10T04:38:59.335Z,7.23
2018-11-10T04:41:27.435Z,7.32
2018-11-10T04:43:55.683Z,7.41
2018-11-10T04:46:23.821Z,7.36
2018-11-10T04:48:51.981Z,7.48
2018-11-10T04:51:20.287Z,7.51
2018-11-10T04:53:48.380Z,7.47
2018-11-10T04:56:16.544Z,7.33
2018-11-10T04:58:44.721Z,7.36
2018-11-10T05:01:12.877Z,7.36
2018-11-10T05:03:41.094Z,7.59
2018-11-10T05:06:09.217Z,7.48
2018-11-10T05:08:37.371Z,7.38
2018-11-10T05:11:06.064Z,7.30
2018-11-10T05:13:34.172Z,7.41
2018-11-10T05:16:02.396Z,7.57
2018-11-10T05:18:31.411Z,7.50
2018-11-10T05:20:59.584Z,7.58
2018-11-10T05:23:27.725Z,7.62
2018-11-10T05:25:55.960Z,7.67
2018-11-10T05:28:24.185Z,7.56
2018-11-10T05:30:52.336Z,7.70
2018-11-10T05:33:20.471Z,7.64
2018-11-10T05:35:48.626Z,7.65
2018-11-10T05:38:16.738Z,7.68
2018-11-10T05:40:44.867Z,7.53
2018-11-10T05:43:12.988Z,7.72
2018-11-10T05:45:41.120Z,7.71
2018-11-10T05:48:09.332Z,7.65
2018-11-10T05:50:37.468Z,7.68
2018-11-10T05:53:05.701Z,7.74
2018-11-10T05:55:33.829Z,7.87
2018-11-10T05:58:02.173Z,7.89
2018-11-10T06:00:30.298Z,7.69
2018-11-10T06:02:58.517Z,7.72
2018-11-10T06:05:26.586Z,7.80
2018-11-10T06:07:54.666Z,7.68
2018-11-10T06:10:22.897Z,7.68
2018-11-10T06:12:50.925Z,7.71
2018-11-10T06:15:18.995Z,7.65
2018-11-10T06:17:47.141Z,7.76
2018-11-10T06:20:15.279Z,7.74
2018-11-10T06:22:43.387Z,7.73
2018-11-10T06:25:11.956Z,7.71
2018-11-10T06:27:40.338Z,7.82
2018-11-10T06:30:09.719Z,7.83
2018-11-10T06:32:38.181Z,7.93
2018-11-10T06:35:06.569Z,8.04
2018-11-10T06:37:34.898Z,8.04
2018-11-10T06:40:03.047Z,8.09
2018-11-10T06:42:31.245Z,7.95
2018-11-10T06:44:59.364Z,7.90
2018-11-10T06:47:27.498Z,7.77
2018-11-10T06:49:55.623Z,7.80
2018-11-10T06:52:23.755Z,7.64
2018-11-10T06:54:51.856Z,7.75
2018-11-10T06:57:20.053Z,7.89
2018-11-10T06:59:48.179Z,7.98
2018-11-10T07:02:16.323Z,7.87
2018-11-10T07:04:44.499Z,7.75
2018-11-10T07:07:12.613Z,7.79
2018-11-10T07:09:40.730Z,7.88
2018-11-10T07:12:08.841Z,7.89
2018-11-10T07:14:36.986Z,8.12
2018-11-10T07:17:05.335Z,8.11
2018-11-10T07:19:33.488Z,8.15
2018-11-10T07:22:01.649Z,8.04
2018-11-10T07:24:29.837Z,8.20
2018-11-10T07:26:57.944Z,8.22
2018-11-10T07:29:26.094Z,7.94
2018-11-10T07:31:54.333Z,8.19
2018-11-10T07:34:22.388Z,8.19
2018-11-10T07:36:50.522Z,8.32
2018-11-10T07:39:18.712Z,8.10
2018-11-10T07:41:46.844Z,8.11
2018-11-10T07:44:15.040Z,8.20
2018-11-10T07:46:43.176Z,8.15
2018-11-10T07:49:11.326Z,8.24
2018-11-10T07:51:39.407Z,8.15
2018-11-10T07:54:07.563Z,8.22
2018-11-10T07:56:35.657Z,8.20
2018-11-10T07:59:03.784Z,8.55
2018-11-10T08:01:31.985Z,8.42
2018-11-10T08:04:00.101Z,8.27
2018-11-10T08:06:28.233Z,8.43
2018-11-10T08:08:56.350Z,8.24
2018-11-10T08:11:24.468Z,8.39
2018-11-10T08:13:52.750Z,8.57
2018-11-10T08:16:20.886Z,8.31
2018-11-10T08:18:49.097Z,8.60
2018-11-10T08:21:17.476Z,8.48
2018-11-10T08:23:45.759Z,8.48
2018-11-10T08:26:13.932Z,8.56
2018-11-10T08:28:42.089Z,8.61
2018-11-10T08:31:10.322Z,8.71
2018-11-10T08:33:38.445Z,8.82
2018-11-10T08:36:06.606Z,8.80
2018-11-10T08:38:34.768Z,8.93
2018-11-10T08:41:02.878Z,9.01
2018-11-10T08:43:31.028Z,9.01
2018-11-10T08:45:59.246Z,9.01
2018-11-10T08:48:27.395Z,9.02
2018-11-10T08:50:55.583Z,9.01
2018-11-10T08:53:23.730Z,9.03
2018-11-10T08:55:51.900Z,9.17
2018-11-10T08:58:20.120Z,9.18
2018-11-10T09:00:48.304Z,9.07
2018-11-10T09:03:16.475Z,8.98
2018-11-10T09:05:44.672Z,9.19
2018-11-10T09:08:12.879Z,9.26
2018-11-10T09:10:41.026Z,9.55
2018-11-10T09:13:09.147Z,9.69
2018-11-10T09:15:37.318Z,9.56
2018-11-10T09:18:05.914Z,9.58
2018-11-10T09:20:34.069Z,9.60
2018-11-10T09:23:02.242Z,9.45
2018-11-10T09:25:30.367Z,9.45
2018-11-10T09:27:58.642Z,9.78
2018-11-10T09:30:26.785Z,9.79
2018-11-10T09:32:55.116Z,9.99
2018-11-10T09:35:23.278Z,9.85
2018-11-10T09:37:51.402Z,9.98
2018-11-10T09:40:19.520Z,9.96
2018-11-10T09:42:47.684Z,9.79
2018-11-10T09:45:16.806Z,9.95
2018-11-10T09:47:44.944Z,9.97
2018-11-10T09:50:16.534Z,9.76
2018-11-10T09:52:45.136Z,9.98
2018-11-10T09:55:14.008Z,10.27
2018-11-10T09:57:42.193Z,9.87
2018-11-10T10:00:15.901Z,10.06
2018-11-10T10:02:44.465Z,10.12
2018-11-10T10:05:12.656Z,10.27
2018-11-10T10:07:41.670Z,10.17
2018-11-10T10:10:11.590Z,10.37
2018-11-10T10:12:39.781Z,10.47
2018-11-10T10:15:09.998Z,10.35
2018-11-10T10:17:38.382Z,10.00
2018-11-10T10:20:09.032Z,9.90
2018-11-10T10:22:37.166Z,10.10
2018-11-10T10:25:06.508Z,10.24
2018-11-10T10:27:34.722Z,10.28
2018-11-10T10:30:03.021Z,10.34
2018-11-10T10:32:31.190Z,10.60
2018-11-10T10:34:59.465Z,10.62
2018-11-10T10:37:27.646Z,10.27
2018-11-10T10:39:55.801Z,10.46
2018-11-10T10:42:24.014Z,10.43
2018-11-10T10:44:52.230Z,10.51
2018-11-10T10:47:20.401Z,10.46
2018-11-10T10:49:48.642Z,10.31
2018-11-10T10:52:16.823Z,10.29
2018-11-10T10:54:45.040Z,10.07
2018-11-10T10:57:13.683Z,10.06
2018-11-10T10:59:41.812Z,10.13
2018-11-10T11:02:15.264Z,10.11
2018-11-10T11:04:44.298Z,10.35
2018-11-10T11:07:12.468Z,10.34
2018-11-10T11:09:40.943Z,10.49
2018-11-10T11:12:09.149Z,10.49
2018-11-10T11:14:37.302Z,10.54
2018-11-10T11:17:05.618Z,10.79
2018-11-10T11:19:33.892Z,10.70
2018-11-10T11:22:02.296Z,10.77
2018-11-10T11:24:30.517Z,10.78
2018-11-10T11:26:58.973Z,10.88
2018-11-10T11:29:27.231Z,11.05
2018-11-10T11:31:55.266Z,11.21
2018-11-10T11:34:23.396Z,11.26
2018-11-10T11:36:51.604Z,11.20
2018-11-10T11:39:20.068Z,11.22
2018-11-10T11:41:48.380Z,11.36
2018-11-10T11:44:16.505Z,11.49
2018-11-10T11:46:44.660Z,11.53
2018-11-10T11:49:12.805Z,11.71
2018-11-10T11:51:41.020Z,11.75
2018-11-10T11:54:09.236Z,11.73
2018-11-10T11:56:37.396Z,11.81
2018-11-10T11:59:05.852Z,11.70
2018-11-10T12:01:34.098Z,11.56
2018-11-10T12:04:02.345Z,11.52
2018-11-10T12:06:30.551Z,11.64
2018-11-10T12:08:58.682Z,11.64
2018-11-10T12:11:26.838Z,11.49
2018-11-10T12:13:54.958Z,11.59
2018-11-10T12:16:27.183Z,11.70
2018-11-10T12:18:51.301Z,11.66
2018-11-10T12:21:19.446Z,11.64
2018-11-10T12:23:47.616Z,11.61
2018-11-10T12:26:15.779Z,11.79
2018-11-10T12:28:43.976Z,11.90
2018-11-10T12:31:12.096Z,11.76
2018-11-10T12:33:40.250Z,11.74
2018-11-10T12:36:08.392Z,11.81
2018-11-10T12:38:36.587Z,11.85
2018-11-10T12:41:04.672Z,11.98
2018-11-10T12:43:32.910Z,11.81
2018-11-10T12:46:01.160Z,11.83
2018-11-10T12:48:29.338Z,11.93
2018-11-10T12:50:57.452Z,11.86
2018-11-10T12:53:25.615Z,11.85
2018-11-10T12:55:53.811Z,11.96
2018-11-10T12:58:21.964Z,11.97
2018-11-10T13:00:50.131Z,11.99
2018-11-10T13:03:18.297Z,12.07
2018-11-10T13:05:46.439Z,12.05
2018-11-10T13:08:14.733Z,12.10
2018-11-10T13:10:42.837Z,12.12
2018-11-10T13:13:11.022Z,12.08
2018-11-10T13:15:39.261Z,12.04
2018-11-10T13:18:07.409Z,12.00
2018-11-10T13:20:35.565Z,11.93
2018-11-10T13:23:03.747Z,12.08
2018-11-10T13:25:31.868Z,12.12
2018-11-10T13:28:00.009Z,12.03
2018-11-10T13:30:28.199Z,11.97
2018-11-10T13:32:56.341Z,12.03
2018-11-10T13:35:24.519Z,12.08
2018-11-10T13:37:52.652Z,12.06
2018-11-10T13:40:20.838Z,12.11
2018-11-10T13:42:49.013Z,12.10
2018-11-10T13:45:17.323Z,12.23
2018-11-10T13:47:45.617Z,12.23
2018-11-10T13:50:13.857Z,12.23
2018-11-10T13:52:43.186Z,12.18
2018-11-10T13:55:11.214Z,12.21
2018-11-10T13:57:39.729Z,12.27
2018-11-10T14:00:10.230Z,12.27
2018-11-10T14:02:38.369Z,12.22
2018-11-10T14:05:06.730Z,12.23
2018-11-10T14:07:34.944Z,12.27
2018-11-10T14:10:03.121Z,12.22
2018-11-10T14:12:31.311Z,12.16
2018-11-10T14:14:59.485Z,12.20
2018-11-10T14:17:27.722Z,12.16
2018-11-10T14:19:55.913Z,12.20
2018-11-10T14:22:24.103Z,12.11
2018-11-10T14:24:52.349Z,12.16
2018-11-10T14:27:20.517Z,12.17
2018-11-10T14:29:48.705Z,12.21
2018-11-10T14:32:16.927Z,12.16
2018-11-10T14:34:45.117Z,12.13
2018-11-10T14:37:13.386Z,12.07
2018-11-10T14:39:41.565Z,11.98
2018-11-10T14:42:09.717Z,11.96
2018-11-10T14:44:38.183Z,11.98
2018-11-10T14:47:13.121Z,12.00
2018-11-10T14:49:41.367Z,12.07
2018-11-10T14:52:09.547Z,11.96
2018-11-10T14:54:37.812Z,11.92
2018-11-10T14:57:06.191Z,11.88
2018-11-10T14:59:34.389Z,11.87
2018-11-10T15:02:02.651Z,11.82
2018-11-10T15:04:30.780Z,11.83
2018-11-10T15:06:59.146Z,11.76
2018-11-10T15:09:27.305Z,11.65
2018-11-10T15:11:55.574Z,11.58
2018-11-10T15:14:23.606Z,11.51
2018-11-10T15:16:52.065Z,11.48
2018-11-10T15:19:20.191Z,11.38
2018-11-10T15:21:48.343Z,11.41
2018-11-10T15:24:16.551Z,11.45
2018-11-10T15:26:44.710Z,11.59
2018-11-10T15:29:12.934Z,11.47
2018-11-10T15:31:41.213Z,11.48
2018-11-10T15:34:09.466Z,11.34
2018-11-10T15:36:37.674Z,11.29
2018-11-10T15:39:06.703Z,11.40
2018-11-10T15:41:34.854Z,11.22
2018-11-10T15:44:03.051Z,11.13
2018-11-10T15:46:31.228Z,10.97
2018-11-10T15:48:59.390Z,10.95
2018-11-10T15:51:27.576Z,10.91
2018-11-10T15:53:55.719Z,10.84
2018-11-10T15:56:23.909Z,10.96
2018-11-10T15:58:52.088Z,11.03
2018-11-10T16:01:20.262Z,10.96
2018-11-10T16:03:48.483Z,10.89
2018-11-10T16:06:16.669Z,10.94
2018-11-10T16:08:44.824Z,10.85
2018-11-10T16:11:12.996Z,10.93
2018-11-10T16:13:41.151Z,10.97
2018-11-10T16:16:09.312Z,10.98
2018-11-10T16:18:39.363Z,10.93
2018-11-10T16:21:07.514Z,10.85
2018-11-10T16:23:35.672Z,10.62
2018-11-10T16:26:03.851Z,10.80
2018-11-10T16:28:32.074Z,10.80
2018-11-10T16:31:00.261Z,10.90
2018-11-10T16:33:28.461Z,10.90
2018-11-10T16:35:56.709Z,10.79
2018-11-10T16:38:24.928Z,10.72
2018-11-10T16:40:53.101Z,10.78
2018-11-10T16:43:21.281Z,10.73
2018-11-10T16:45:49.526Z,10.67
2018-11-10T16:48:17.677Z,10.57
2018-11-10T16:50:45.806Z,10.45
2018-11-10T16:53:13.997Z,10.37
2018-11-10T16:55:42.151Z,10.35
2018-11-10T16:58:10.307Z,10.27
2018-11-10T17:00:38.530Z,10.28
2018-11-10T17:03:06.673Z,10.50
2018-11-10T17:05:34.901Z,10.52
2018-11-10T17:08:03.122Z,10.37
2018-11-10T17:10:31.313Z,10.37
2018-11-10T17:12:59.424Z,10.24
2018-11-10T17:15:27.689Z,10.13
2018-11-10T17:17:55.876Z,10.19
2018-11-10T17:20:24.033Z,10.15
2018-11-10T17:22:52.233Z,10.07
2018-11-10T17:25:20.465Z,10.21
2018-11-10T17:27:48.648Z,10.29
2018-11-10T17:30:19.562Z,10.31
2018-11-10T17:32:47.977Z,10.32
2018-11-10T17:35:16.211Z,10.33
2018-11-10T17:37:44.750Z,10.10
2018-11-10T17:40:13.570Z,10.03
2018-11-10T17:42:41.744Z,9.95
2018-11-10T17:45:12.021Z,9.96
2018-11-10T17:47:40.209Z,10.15
2018-11-10T17:50:09.805Z,10.08
2018-11-10T17:52:38.541Z,10.05
2018-11-10T17:55:07.218Z,10.01
2018-11-10T17:57:35.432Z,10.04
2018-11-10T18:00:04.035Z,10.04
2018-11-10T18:02:32.258Z,9.90
2018-11-10T18:05:00.418Z,9.98
2018-11-10T18:07:28.592Z,9.94
2018-11-10T18:09:56.839Z,9.92
2018-11-10T18:12:25.138Z,9.93
2018-11-10T18:14:53.480Z,9.83
2018-11-10T18:17:21.914Z,9.82
2018-11-10T18:19:50.106Z,9.68
2018-11-10T18:22:18.294Z,9.77
2018-11-10T18:24:46.630Z,9.77
2018-11-10T18:27:14.899Z,9.68
2018-11-10T18:29:43.119Z,9.70
2018-11-10T18:32:11.507Z,9.75
2018-11-10T18:34:39.744Z,9.71
2018-11-10T18:37:08.038Z,9.60
2018-11-10T18:39:36.309Z,9.49
2018-11-10T18:42:04.416Z,9.50
2018-11-10T18:44:32.622Z,9.61
2018-11-10T18:47:00.840Z,9.71
2018-11-10T18:49:29.126Z,9.69
2018-11-10T18:51:57.462Z,9.53
2018-11-10T18:54:25.642Z,9.64
2018-11-10T18:56:53.888Z,9.50
2018-11-10T18:59:22.089Z,9.50
2018-11-10T19:01:50.277Z,9.41
2018-11-10T19:04:18.490Z,9.46
2018-11-10T19:06:46.658Z,9.46
2018-11-10T19:09:14.824Z,9.57
2018-11-10T19:11:42.994Z,9.45
2018-11-10T19:14:11.159Z,9.51
2018-11-10T19:16:39.357Z,9.44
2018-11-10T19:19:07.923Z,9.45
2018-11-10T19:21:36.116Z,9.52
2018-11-10T19:24:04.567Z,9.51
2018-11-10T19:26:32.734Z,9.59
2018-11-10T19:29:00.943Z,9.53
2018-11-10T19:31:29.145Z,9.38
2018-11-10T19:33:57.382Z,9.33
2018-11-10T19:36:25.579Z,9.28
2018-11-10T19:38:53.833Z,9.28
2018-11-10T19:41:22.050Z,9.35
2018-11-10T19:43:50.320Z,9.32
2018-11-10T19:46:19.413Z,9.24
2018-11-10T19:48:47.643Z,9.23
2018-11-10T19:51:16.754Z,9.22
2018-11-10T19:53:44.958Z,9.22
2018-11-10T19:56:13.384Z,9.14
2018-11-10T19:58:41.579Z,9.17
2018-11-10T20:01:10.590Z,9.02
2018-11-10T20:03:38.900Z,9.05
2018-11-10T20:06:07.177Z,8.94
2018-11-10T20:08:35.365Z,9.05
2018-11-10T20:11:03.556Z,8.96
2018-11-10T20:13:31.751Z,8.96
2018-11-10T20:16:00.007Z,9.01
2018-11-10T20:18:28.297Z,8.84
2018-11-10T20:20:56.508Z,8.81
2018-11-10T20:23:24.785Z,8.83
2018-11-10T20:25:52.965Z,8.73
2018-11-10T20:28:21.192Z,8.71
2018-11-10T20:30:49.386Z,8.72
2018-11-10T20:33:17.610Z,8.79
2018-11-10T20:35:45.913Z,8.74
2018-11-10T20:38:14.118Z,8.62
2018-11-10T20:40:42.949Z,8.66
2018-11-10T20:43:11.250Z,8.59
2018-11-10T20:45:40.186Z,8.54
2018-11-10T20:48:08.408Z,8.60
2018-11-10T20:50:36.659Z,8.67
2018-11-10T20:53:05.062Z,8.60
2018-11-10T20:55:33.250Z,8.57
2018-11-10T20:58:01.459Z,8.43
2018-11-10T21:00:30.092Z,8.43
2018-11-10T21:02:58.278Z,8.47
2018-11-10T21:05:26.495Z,8.55
2018-11-10T21:07:54.767Z,8.57
2018-11-10T21:10:22.976Z,8.48
2018-11-10T21:12:51.546Z,8.57
2018-11-10T21:15:20.467Z,8.36
2018-11-10T21:17:49.468Z,8.40
2018-11-10T21:20:18.299Z,8.39
2018-11-10T21:22:46.491Z,8.32
2018-11-10T21:25:16.296Z,8.35
2018-11-10T21:27:44.912Z,8.23
2018-11-10T21:30:15.507Z,8.23
2018-11-10T21:32:44.134Z,8.26
2018-11-10T21:35:12.503Z,8.28
2018-11-10T21:37:40.684Z,8.14
2018-11-10T21:40:11.433Z,8.23
2018-11-10T21:42:39.945Z,8.16
2018-11-10T21:45:09.124Z,8.09
2018-11-10T21:47:37.365Z,8.25
2018-11-10T21:50:07.642Z,8.05
2018-11-10T21:52:35.973Z,8.14
2018-11-10T21:55:05.545Z,8.08
2018-11-10T21:57:34.104Z,8.08
2018-11-10T22:00:02.318Z,8.11
2018-11-10T22:02:30.585Z,8.15
2018-11-10T22:04:58.756Z,8.13
2018-11-10T22:07:26.955Z,8.17
2018-11-10T22:09:55.210Z,8.20
2018-11-10T22:12:23.408Z,8.25
2018-11-10T22:14:51.590Z,8.28
2018-11-10T22:17:19.844Z,8.23
2018-11-10T22:19:47.989Z,8.21
2018-11-10T22:22:16.163Z,8.21
2018-11-10T22:24:44.321Z,8.12
2018-11-10T22:27:12.522Z,8.07
2018-11-10T22:29:40.668Z,8.11
2018-11-10T22:32:08.850Z,8.03
2018-11-10T22:34:37.029Z,8.12
2018-11-10T22:37:05.255Z,7.94
2018-11-10T22:39:33.398Z,7.90
2018-11-10T22:42:01.573Z,7.93
2018-11-10T22:44:29.769Z,8.03
2018-11-10T22:46:57.929Z,7.95
2018-11-10T22:49:26.089Z,7.90
2018-11-10T22:51:54.215Z,7.94
2018-11-10T22:54:22.443Z,7.77
2018-11-10T22:56:50.607Z,7.76
2018-11-10T22:59:18.760Z,7.87
2018-11-10T23:01:46.970Z,7.69
2018-11-10T23:04:15.138Z,7.70
2018-11-10T23:06:43.292Z,7.75
2018-11-10T23:09:11.402Z,7.65
2018-11-10T23:11:39.533Z,7.55
2018-11-10T23:14:07.681Z,7.63
2018-11-10T23:16:35.812Z,7.53
2018-11-10T23:19:04.038Z,7.41
2018-11-10T23:21:32.186Z,7.49
2018-11-10T23:24:00.341Z,7.45
2018-11-10T23:26:28.492Z,7.41
2018-11-10T23:28:56.677Z,7.48
2018-11-10T23:31:24.821Z,7.41
2018-11-10T23:33:53.001Z,7.45
2018-11-10T23:36:21.128Z,7.38
2018-11-10T23:38:49.304Z,7.33
2018-11-10T23:41:17.477Z,7.30
2018-11-10T23:43:45.612Z,7.33
2018-11-10T23:46:13.749Z,7.36
2018-11-10T23:48:41.891Z,7.30
2018-11-10T23:51:10.063Z,7.37
2018-11-10T23:53:38.183Z,7.36
2018-11-10T23:56:06.325Z,7.40
2018-11-10T23:58:34.495Z,7.43
